createdAt,value
2018-08-11T00:01:45.816Z,0.60
2018-08-11T00:04:14.128Z,0.80
2018-08-11T00:06:42.461Z,0.67
2018-08-11T00:09:11.671Z,0.70
2018-08-11T00:11:40.571Z,0.87
2018-08-11T00:14:08.847Z,0.57
2018-08-11T00:16:37.614Z,0.93
2018-08-11T00:19:05.939Z,0.50
2018-08-11T00:21:34.274Z,0.50
2018-08-11T00:24:02.612Z,0.60
2018-08-11T00:26:30.972Z,0.50
2018-08-11T00:28:59.324Z,0.83
2018-08-11T00:31:27.618Z,0.80
2018-08-11T00:33:55.889Z,0.60
2018-08-11T00:36:24.174Z,0.67
2018-08-11T00:38:55.800Z,0.53
2018-08-11T00:41:24.094Z,0.97
2018-08-11T00:43:52.353Z,0.70
2018-08-11T00:46:20.644Z,0.80
2018-08-11T00:48:48.974Z,0.70
2018-08-11T00:51:17.331Z,0.57
2018-08-11T00:53:45.697Z,0.80
2018-08-11T00:56:14.070Z,0.67
2018-08-11T00:58:42.463Z,0.83
2018-08-11T01:01:10.804Z,0.60
2018-08-11T01:03:39.115Z,0.60
2018-08-11T01:06:07.458Z,0.80
2018-08-11T01:10:05.022Z,0.93
2018-08-11T01:12:33.311Z,0.70
2018-08-11T01:15:01.633Z,0.93
2018-08-11T01:17:30.006Z,0.63
2018-08-11T01:19:58.391Z,0.70
2018-08-11T01:22:26.766Z,0.83
2018-08-11T01:24:55.312Z,0.63
2018-08-11T01:27:23.717Z,0.80
2018-08-11T01:29:52.288Z,0.90
2018-08-11T01:32:20.557Z,0.90
2018-08-11T01:34:48.879Z,0.83
2018-08-11T01:37:17.398Z,0.57
2018-08-11T01:39:45.724Z,0.90
2018-08-11T01:42:14.068Z,1.00
2018-08-11T01:44:42.425Z,0.60
2018-08-11T01:47:10.755Z,0.80
2018-08-11T01:49:39.070Z,0.87
2018-08-11T01:52:07.540Z,1.00
2018-08-11T01:54:35.871Z,0.90
2018-08-11T01:57:04.222Z,0.90
2018-08-11T01:59:32.567Z,0.73
2018-08-11T02:02:01.869Z,1.10
2018-08-11T02:04:30.416Z,0.80
2018-08-11T02:06:58.708Z,0.87
2018-08-11T02:09:26.995Z,1.47
2018-08-11T02:11:55.243Z,1.17
2018-08-11T02:14:23.551Z,1.00
2018-08-11T02:16:51.899Z,0.77
2018-08-11T02:19:20.206Z,0.90
2018-08-11T02:21:48.584Z,1.10
2018-08-11T02:24:16.980Z,1.00
2018-08-11T02:26:45.303Z,1.10
2018-08-11T02:29:13.612Z,0.70
2018-08-11T02:31:41.846Z,0.80
2018-08-11T02:34:10.228Z,1.17
2018-08-11T02:36:38.511Z,0.80
2018-08-11T02:39:10.077Z,0.77
2018-08-11T02:41:38.443Z,1.00
2018-08-11T02:44:06.765Z,0.87
2018-08-11T02:46:35.262Z,1.03
2018-08-11T02:49:03.643Z,1.00
2018-08-11T02:51:31.987Z,0.90
2018-08-11T02:54:00.555Z,0.90
2018-08-11T02:56:28.844Z,0.90
2018-08-11T02:58:57.199Z,0.80
2018-08-11T03:01:25.512Z,1.10
2018-08-11T03:03:53.823Z,0.90
2018-08-11T03:06:22.198Z,0.90
2018-08-11T03:08:50.599Z,1.13
2018-08-11T03:11:18.907Z,1.00
2018-08-11T03:13:47.206Z,0.80
2018-08-11T03:16:16.475Z,0.70
2018-08-11T03:18:44.815Z,1.23
2018-08-11T03:21:13.153Z,1.00
2018-08-11T03:23:41.425Z,1.03
2018-08-11T03:26:09.699Z,1.20
2018-08-11T03:28:38.046Z,1.27
2018-08-11T03:31:06.406Z,1.00
2018-08-11T03:33:34.927Z,1.00
2018-08-11T03:36:03.592Z,1.10
2018-08-11T03:38:31.937Z,1.20
2018-08-11T03:41:00.289Z,1.10
2018-08-11T03:43:28.563Z,0.90
2018-08-11T03:45:56.912Z,1.13
2018-08-11T03:48:25.226Z,1.07
2018-08-11T03:50:53.493Z,1.10
2018-08-11T03:53:21.746Z,1.20
2018-08-11T03:55:50.079Z,1.10
2018-08-11T03:58:18.712Z,1.57
2018-08-11T04:00:47.039Z,1.30
2018-08-11T04:03:15.394Z,1.30
2018-08-11T04:05:43.778Z,1.20
2018-08-11T04:08:12.024Z,1.00
2018-08-11T04:10:40.331Z,1.27
2018-08-11T04:13:08.667Z,1.20
2018-08-11T04:15:37.004Z,1.03
2018-08-11T04:18:05.248Z,1.10
2018-08-11T04:20:33.543Z,1.23
2018-08-11T04:23:01.817Z,1.47
2018-08-11T04:25:30.139Z,1.50
2018-08-11T04:27:58.463Z,1.57
2018-08-11T04:30:26.745Z,1.37
2018-08-11T04:32:55.005Z,1.37
2018-08-11T04:35:23.358Z,1.40
2018-08-11T04:37:51.709Z,1.37
2018-08-11T04:40:20.057Z,1.07
2018-08-11T04:42:48.320Z,1.20
2018-08-11T04:45:16.612Z,1.30
2018-08-11T04:47:44.923Z,1.30
2018-08-11T04:50:13.297Z,1.40
2018-08-11T04:52:41.666Z,1.43
2018-08-11T04:55:10.046Z,1.23
2018-08-11T04:57:38.422Z,1.43
2018-08-11T05:00:07.708Z,1.10
2018-08-11T05:02:35.969Z,0.90
2018-08-11T05:05:04.628Z,1.03
2018-08-11T05:07:32.962Z,1.40
2018-08-11T05:10:01.396Z,1.17
2018-08-11T05:12:29.718Z,1.00
2018-08-11T05:16:22.566Z,1.57
2018-08-11T05:18:50.845Z,1.07
2018-08-11T05:21:19.156Z,0.80
2018-08-11T05:23:47.485Z,0.90
2018-08-11T05:26:15.829Z,1.00
2018-08-11T05:28:44.064Z,0.90
2018-08-11T05:31:12.356Z,1.07
2018-08-11T05:33:40.592Z,0.70
2018-08-11T05:36:08.901Z,1.40
2018-08-11T05:38:37.349Z,0.90
2018-08-11T05:41:05.677Z,0.93
2018-08-11T05:43:34.091Z,0.97
2018-08-11T05:46:02.506Z,0.90
2018-08-11T05:48:31.803Z,0.90
2018-08-11T05:51:00.118Z,0.90
2018-08-11T05:53:28.563Z,1.03
2018-08-11T05:55:57.332Z,1.00
2018-08-11T05:58:25.642Z,1.03
2018-08-11T06:00:53.949Z,0.70
2018-08-11T06:03:22.294Z,0.90
2018-08-11T06:05:50.572Z,0.90
2018-08-11T06:08:19.124Z,0.93
2018-08-11T06:10:47.428Z,1.00
2018-08-11T06:13:15.735Z,0.80
2018-08-11T06:15:44.102Z,0.90
2018-08-11T06:18:12.357Z,0.60
2018-08-11T06:20:40.679Z,0.77
2018-08-11T06:23:08.994Z,0.70
2018-08-11T06:25:37.310Z,0.97
2018-08-11T06:28:05.588Z,1.13
2018-08-11T06:30:33.864Z,0.87
2018-08-11T06:33:02.152Z,0.70
2018-08-11T06:35:30.430Z,0.90
2018-08-11T06:37:58.679Z,0.67
2018-08-11T06:40:27.040Z,0.60
2018-08-11T06:42:55.363Z,0.60
2018-08-11T06:45:23.618Z,0.83
2018-08-11T06:47:51.923Z,0.90
2018-08-11T06:50:20.262Z,0.70
2018-08-11T06:52:48.536Z,0.63
2018-08-11T06:55:16.815Z,0.60
2018-08-11T06:57:45.123Z,0.80
2018-08-11T07:00:13.409Z,0.67
2018-08-11T07:02:41.769Z,0.50
2018-08-11T07:05:10.146Z,1.00
2018-08-11T07:07:39.447Z,0.60
2018-08-11T07:10:07.724Z,0.70
2018-08-11T07:12:36.045Z,0.90
2018-08-11T07:15:04.659Z,0.60
2018-08-11T07:17:32.998Z,0.80
2018-08-11T07:20:01.319Z,0.77
2018-08-11T07:22:29.660Z,0.77
2018-08-11T07:24:57.983Z,0.82
2018-08-11T07:27:26.239Z,1.00
2018-08-11T07:29:54.941Z,0.80
2018-08-11T07:32:23.242Z,0.70
2018-08-11T07:34:51.519Z,0.90
2018-08-11T07:37:19.817Z,0.57
2018-08-11T07:39:48.136Z,0.90
2018-08-11T07:42:16.472Z,0.70
2018-08-11T07:44:44.693Z,0.70
2018-08-11T07:47:12.995Z,0.55
2018-08-11T07:49:41.268Z,0.65
2018-08-11T07:52:09.546Z,0.75
2018-08-11T07:54:37.840Z,0.75
2018-08-11T07:57:06.266Z,0.80
2018-08-11T07:59:34.588Z,0.68
2018-08-11T08:02:02.897Z,0.60
2018-08-11T08:04:31.143Z,0.60
2018-08-11T08:06:59.434Z,0.70
2018-08-11T08:09:27.732Z,0.50
2018-08-11T08:11:56.107Z,0.50
2018-08-11T08:14:24.464Z,0.60
2018-08-11T08:16:52.758Z,0.50
2018-08-11T08:19:21.014Z,0.40
2018-08-11T08:21:49.291Z,0.65
2018-08-11T08:24:17.564Z,0.65
2018-08-11T08:26:45.890Z,0.57
2018-08-11T08:29:14.208Z,0.78
2018-08-11T08:31:42.553Z,0.50
2018-08-11T08:34:10.911Z,0.30
2018-08-11T08:36:39.311Z,0.47
2018-08-11T08:39:09.099Z,0.50
2018-08-11T08:41:37.378Z,0.47
2018-08-11T08:44:05.757Z,0.40
2018-08-11T08:46:34.118Z,0.35
2018-08-11T08:49:02.383Z,0.40
2018-08-11T08:51:30.688Z,0.40
2018-08-11T08:53:58.940Z,0.40
2018-08-11T08:56:27.251Z,0.30
2018-08-11T08:58:55.619Z,0.55
2018-08-11T09:01:23.908Z,0.53
2018-08-11T09:03:52.254Z,0.50
2018-08-11T09:06:20.732Z,0.50
2018-08-11T09:08:49.014Z,0.15
2018-08-11T09:11:17.381Z,0.35
2018-08-11T09:13:45.699Z,0.30
2018-08-11T09:16:14.052Z,0.70
2018-08-11T09:18:42.347Z,0.55
2018-08-11T09:21:10.682Z,0.40
2018-08-11T09:23:38.970Z,0.40
2018-08-11T09:26:07.284Z,0.60
2018-08-11T09:28:35.551Z,0.35
2018-08-11T09:31:03.780Z,0.50
2018-08-11T09:33:32.441Z,0.40
2018-08-11T09:36:00.788Z,0.60
2018-08-11T09:38:29.123Z,0.40
2018-08-11T09:40:57.438Z,0.37
2018-08-11T09:43:25.719Z,0.37
2018-08-11T09:45:53.969Z,0.70
2018-08-11T09:48:22.259Z,0.35
2018-08-11T09:50:50.543Z,0.40
2018-08-11T09:53:18.824Z,0.37
2018-08-11T09:55:47.083Z,0.28
2018-08-11T09:58:15.350Z,0.40
2018-08-11T10:00:53.751Z,0.40
2018-08-11T10:03:22.289Z,0.40
2018-08-11T10:05:50.697Z,0.47
2018-08-11T10:08:19.031Z,0.40
2018-08-11T10:10:47.305Z,0.50
2018-08-11T10:13:15.579Z,0.50
2018-08-11T10:15:43.855Z,0.30
2018-08-11T10:18:12.164Z,0.50
2018-08-11T10:20:40.564Z,0.65
2018-08-11T10:23:08.975Z,0.57
2018-08-11T10:25:37.338Z,0.70
2018-08-11T10:28:05.674Z,0.35
2018-08-11T10:30:33.930Z,0.45
2018-08-11T10:33:02.230Z,0.50
2018-08-11T10:35:30.465Z,0.30
2018-08-11T10:37:58.862Z,0.35
2018-08-11T10:40:27.189Z,0.40
2018-08-11T10:42:55.565Z,0.53
2018-08-11T10:45:23.902Z,0.40
2018-08-11T10:47:52.256Z,0.40
2018-08-11T10:50:20.574Z,0.37
2018-08-11T10:52:48.844Z,0.50
2018-08-11T10:55:17.186Z,0.50
2018-08-11T10:57:45.515Z,0.30
2018-08-11T11:00:13.778Z,0.50
2018-08-11T11:02:42.081Z,0.35
2018-08-11T11:05:10.718Z,0.35
2018-08-11T11:07:39.035Z,0.33
2018-08-11T11:10:07.971Z,0.45
2018-08-11T11:12:36.285Z,0.50
2018-08-11T11:15:05.664Z,0.30
2018-08-11T11:17:34.013Z,0.20
2018-08-11T11:20:02.343Z,0.35
2018-08-11T11:22:30.631Z,0.30
2018-08-11T11:24:58.878Z,0.30
2018-08-11T11:27:27.187Z,0.30
2018-08-11T11:29:55.435Z,0.20
2018-08-11T11:32:23.753Z,0.40
2018-08-11T11:34:52.431Z,0.30
2018-08-11T11:37:20.755Z,0.20
2018-08-11T11:39:48.955Z,0.28
2018-08-11T11:42:17.247Z,0.33
2018-08-11T11:44:45.523Z,0.20
2018-08-11T11:47:13.783Z,0.20
2018-08-11T11:49:42.132Z,0.37
2018-08-11T11:52:10.483Z,0.20
2018-08-11T11:54:38.842Z,0.17
2018-08-11T11:57:07.710Z,0.20
2018-08-11T11:59:36.047Z,0.20
2018-08-11T12:02:04.437Z,0.23
2018-08-11T12:04:32.658Z,0.37
2018-08-11T12:07:00.981Z,0.30
2018-08-11T12:09:29.339Z,0.20
2018-08-11T12:11:57.639Z,0.20
2018-08-11T12:14:26.066Z,0.20
2018-08-11T12:16:54.352Z,0.13
2018-08-11T12:19:22.748Z,0.10
2018-08-11T12:21:50.988Z,0.50
2018-08-11T12:24:19.298Z,0.20
2018-08-11T12:26:47.558Z,0.10
2018-08-11T12:29:15.862Z,0.20
2018-08-11T12:31:44.141Z,0.20
2018-08-11T12:34:12.442Z,0.30
2018-08-11T12:36:40.824Z,0.20
2018-08-11T12:39:10.645Z,0.30
2018-08-11T12:41:39.379Z,0.30
2018-08-11T12:44:07.899Z,0.20
2018-08-11T12:46:36.251Z,0.10
2018-08-11T12:49:04.554Z,0.20
2018-08-11T12:51:32.883Z,0.25
2018-08-11T12:54:01.269Z,0.33
2018-08-11T12:56:29.557Z,0.30
2018-08-11T12:58:57.839Z,0.30
2018-08-11T13:01:26.127Z,0.45
2018-08-11T13:03:54.499Z,0.60
2018-08-11T13:06:23.828Z,0.20
2018-08-11T13:08:52.236Z,0.30
2018-08-11T13:11:20.647Z,0.40
2018-08-11T13:13:48.950Z,0.30
2018-08-11T13:16:17.298Z,0.35
2018-08-11T13:18:45.919Z,0.37
2018-08-11T13:21:14.318Z,0.43
2018-08-11T13:23:42.699Z,0.20
2018-08-11T13:26:11.025Z,0.27
2018-08-11T13:28:39.336Z,0.45
2018-08-11T13:31:07.726Z,0.30
2018-08-11T13:33:36.066Z,0.30
2018-08-11T13:36:04.345Z,0.20
2018-08-11T13:38:33.722Z,0.20
2018-08-11T13:41:02.031Z,0.30
2018-08-11T13:43:30.328Z,0.37
2018-08-11T13:45:58.750Z,0.30
2018-08-11T13:48:27.073Z,0.40
2018-08-11T13:50:55.309Z,0.30
2018-08-11T13:53:23.683Z,0.17
2018-08-11T13:55:52.017Z,0.40
2018-08-11T13:58:20.359Z,0.30
2018-08-11T14:00:48.637Z,0.50
2018-08-11T14:03:16.935Z,0.40
2018-08-11T14:05:45.215Z,0.55
2018-08-11T14:08:13.455Z,0.33
2018-08-11T14:10:41.736Z,0.28
2018-08-11T14:13:10.033Z,0.30
2018-08-11T14:15:38.359Z,0.50
2018-08-11T14:18:06.751Z,0.40
2018-08-11T14:20:35.103Z,0.50
2018-08-11T14:23:03.424Z,0.40
2018-08-11T14:25:31.776Z,0.50
2018-08-11T14:28:00.119Z,0.30
2018-08-11T14:30:28.375Z,0.30
2018-08-11T14:32:56.654Z,0.37
2018-08-11T14:35:24.955Z,0.30
2018-08-11T14:37:53.384Z,0.40
2018-08-11T14:40:21.719Z,0.50
2018-08-11T14:42:51.374Z,0.50
2018-08-11T14:45:20.598Z,0.30
2018-08-11T14:47:48.893Z,0.40
2018-08-11T14:50:17.192Z,0.40
2018-08-11T14:52:45.595Z,0.40
2018-08-11T14:55:13.926Z,0.33
2018-08-11T14:57:42.235Z,0.57
2018-08-11T15:00:12.526Z,0.37
2018-08-11T15:02:41.086Z,0.40
2018-08-11T15:05:09.900Z,0.40
2018-08-11T15:07:38.458Z,0.40
2018-08-11T15:10:07.463Z,0.40
2018-08-11T15:12:35.759Z,0.40
2018-08-11T15:15:04.767Z,0.33
2018-08-11T15:17:33.034Z,0.37
2018-08-11T15:20:01.308Z,0.43
2018-08-11T15:22:29.568Z,0.30
2018-08-11T15:24:57.879Z,0.30
2018-08-11T15:27:26.136Z,0.40
2018-08-11T15:29:54.414Z,0.40
2018-08-11T15:32:22.691Z,0.50
2018-08-11T15:34:50.952Z,0.77
2018-08-11T15:37:19.242Z,0.30
2018-08-11T15:39:47.507Z,0.40
2018-08-11T15:42:15.795Z,0.50
2018-08-11T15:44:44.078Z,0.50
2018-08-11T15:47:12.324Z,0.35
2018-08-11T15:49:40.799Z,0.50
2018-08-11T15:52:09.176Z,0.40
2018-08-11T15:54:37.533Z,0.40
2018-08-11T15:57:05.843Z,0.40
2018-08-11T15:59:34.142Z,0.40
2018-08-11T16:02:02.404Z,0.40
2018-08-11T16:11:33.917Z,0.40
2018-08-11T16:14:02.510Z,0.43
2018-08-11T16:16:30.778Z,0.40
2018-08-11T16:18:59.063Z,0.60
2018-08-11T16:21:27.346Z,0.47
2018-08-11T16:23:55.615Z,0.50
2018-08-11T16:26:23.891Z,0.50
2018-08-11T16:28:52.551Z,0.60
2018-08-11T16:31:20.954Z,0.30
2018-08-11T16:33:49.268Z,0.40
2018-08-11T16:36:17.615Z,0.33
2018-08-11T16:38:45.875Z,0.50
2018-08-11T16:41:14.184Z,0.30
2018-08-11T16:43:42.427Z,0.30
2018-08-11T16:46:10.715Z,0.40
2018-08-11T16:48:39.013Z,0.50
2018-08-11T16:51:07.300Z,0.30
2018-08-11T16:53:36.585Z,0.40
2018-08-11T16:56:05.094Z,0.50
2018-08-11T16:58:33.443Z,0.40
2018-08-11T17:01:01.772Z,0.40
2018-08-11T17:03:30.147Z,0.37
2018-08-11T17:05:58.514Z,0.43
2018-08-11T17:08:26.864Z,0.40
2018-08-11T17:10:55.166Z,0.40
2018-08-11T17:13:23.492Z,0.60
2018-08-11T17:15:51.786Z,0.47
2018-08-11T17:18:20.068Z,0.50
2018-08-11T17:20:48.382Z,0.60
2018-08-11T17:23:16.726Z,0.50
2018-08-11T17:25:45.048Z,0.60
2018-08-11T17:28:13.402Z,0.53
2018-08-11T17:30:41.778Z,0.57
2018-08-11T17:33:10.049Z,0.60
2018-08-11T17:35:38.314Z,0.30
2018-08-11T17:38:06.936Z,0.47
2018-08-11T17:40:35.275Z,0.30
2018-08-11T17:43:03.588Z,0.50
2018-08-11T17:45:31.921Z,0.63
2018-08-11T17:48:00.222Z,0.47
2018-08-11T17:50:28.529Z,0.50
2018-08-11T17:52:56.855Z,0.40
2018-08-11T17:55:25.165Z,0.60
2018-08-11T17:57:53.928Z,0.37
2018-08-11T18:00:22.220Z,0.63
2018-08-11T18:02:50.497Z,0.47
2018-08-11T18:05:18.774Z,0.30
2018-08-11T18:07:47.038Z,0.67
2018-08-11T18:10:15.382Z,0.60
2018-08-11T18:12:43.702Z,0.40
2018-08-11T18:15:12.071Z,0.70
2018-08-11T18:17:40.383Z,0.50
2018-08-11T18:21:11.932Z,0.60
2018-08-11T18:23:40.199Z,0.40
2018-08-11T18:26:08.475Z,0.40
2018-08-11T18:28:36.794Z,0.30
2018-08-11T18:31:05.231Z,0.30
2018-08-11T18:33:33.515Z,0.33
2018-08-11T18:36:01.843Z,0.53
2018-08-11T18:38:30.131Z,0.40
2018-08-11T18:40:58.598Z,0.40
2018-08-11T18:43:26.960Z,0.50
2018-08-11T18:45:55.324Z,0.30
2018-08-11T18:48:23.683Z,0.40
2018-08-11T18:50:51.967Z,0.40
2018-08-11T18:53:20.235Z,0.50
2018-08-11T18:55:48.573Z,0.30
2018-08-11T18:58:16.942Z,0.30
2018-08-11T19:00:45.318Z,0.50
2018-08-11T19:03:13.671Z,0.33
2018-08-11T19:05:41.984Z,0.40
2018-08-11T19:08:10.328Z,0.30
2018-08-11T19:10:38.686Z,0.30
2018-08-11T19:13:07.024Z,0.73
2018-08-11T19:15:35.306Z,0.30
2018-08-11T19:18:03.675Z,0.40
2018-08-11T19:20:31.983Z,0.20
2018-08-11T19:23:00.373Z,0.50
2018-08-11T19:25:28.741Z,0.20
2018-08-11T19:27:57.092Z,0.20
2018-08-11T19:30:25.410Z,0.23
2018-08-11T19:32:53.704Z,0.30
2018-08-11T19:35:21.967Z,0.50
2018-08-11T19:37:50.267Z,0.20
2018-08-11T19:40:18.615Z,0.30
2018-08-11T19:42:46.936Z,0.30
2018-08-11T19:45:15.363Z,0.30
2018-08-11T19:47:43.718Z,0.30
2018-08-11T19:50:12.791Z,0.40
2018-08-11T19:52:41.966Z,0.37
2018-08-11T19:55:10.826Z,0.30
2018-08-11T19:57:39.198Z,0.50
2018-08-11T20:00:09.654Z,0.27
2018-08-11T20:02:38.154Z,0.40
2018-08-11T20:05:07.336Z,0.50
2018-08-11T20:07:35.619Z,0.33
2018-08-11T20:10:04.512Z,0.30
2018-08-11T20:12:32.830Z,0.33
2018-08-11T20:15:01.244Z,0.50
2018-08-11T20:17:29.614Z,0.40
2018-08-11T20:19:57.943Z,0.30
2018-08-11T20:22:26.304Z,0.40
2018-08-11T20:24:54.596Z,0.30
2018-08-11T20:27:22.892Z,0.23
2018-08-11T20:29:51.285Z,0.40
2018-08-11T20:32:20.540Z,0.23
2018-08-11T20:34:48.813Z,0.30
2018-08-11T20:37:17.107Z,0.30
2018-08-11T20:39:46.391Z,0.23
2018-08-11T20:42:14.685Z,0.40
2018-08-11T20:44:42.940Z,0.63
2018-08-11T20:47:11.285Z,0.30
2018-08-11T20:49:39.608Z,0.30
2018-08-11T20:52:07.913Z,0.33
2018-08-11T20:54:36.256Z,0.40
2018-08-11T20:57:05.055Z,0.30
2018-08-11T20:59:33.325Z,0.30
2018-08-11T21:02:01.639Z,0.30
2018-08-11T21:04:29.987Z,0.40
2018-08-11T21:06:58.359Z,0.30
2018-08-11T21:09:26.644Z,0.30
2018-08-11T21:11:54.975Z,0.40
2018-08-11T21:14:23.320Z,0.40
2018-08-11T21:16:51.694Z,0.40
2018-08-11T21:19:19.960Z,0.43
2018-08-11T21:21:48.219Z,0.47
2018-08-11T21:24:16.518Z,0.27
2018-08-11T21:26:44.790Z,0.43
2018-08-11T21:29:13.067Z,0.20
2018-08-11T21:31:41.343Z,0.30
2018-08-11T21:34:09.644Z,0.50
2018-08-11T21:36:38.005Z,0.50
2018-08-11T21:39:10.987Z,0.40
2018-08-11T21:41:39.306Z,0.40
2018-08-11T21:44:07.668Z,0.50
2018-08-11T21:46:36.234Z,0.60
2018-08-11T21:49:04.518Z,0.63
2018-08-11T21:51:32.738Z,0.40
2018-08-11T21:54:01.078Z,0.40
2018-08-11T21:59:19.908Z,0.30
2018-08-11T22:01:48.211Z,0.40
2018-08-11T22:04:16.506Z,0.40
2018-08-11T22:06:44.786Z,0.20
2018-08-11T22:09:14.467Z,0.37
2018-08-11T22:11:43.146Z,0.60
2018-08-11T22:14:11.571Z,0.43
2018-08-11T22:16:40.031Z,0.40
2018-08-11T22:19:08.433Z,0.47
2018-08-11T22:21:36.771Z,0.40
2018-08-11T22:24:05.078Z,0.60
2018-08-11T22:26:33.327Z,0.30
2018-08-11T22:29:01.608Z,0.37
2018-08-11T22:31:29.842Z,0.60
2018-08-11T22:33:58.184Z,0.37
2018-08-11T22:36:27.473Z,0.47
2018-08-11T22:38:56.805Z,0.40
2018-08-11T22:41:25.233Z,0.30
2018-08-11T22:43:53.606Z,0.30
2018-08-11T22:46:21.898Z,0.40
2018-08-11T22:48:50.224Z,0.40
2018-08-11T22:51:18.561Z,0.30
2018-08-11T22:53:46.888Z,0.37
2018-08-11T22:56:15.223Z,0.20
2018-08-11T22:58:43.505Z,0.40
2018-08-11T23:01:11.758Z,0.30
2018-08-11T23:03:40.166Z,0.20
2018-08-11T23:06:08.426Z,0.30
2018-08-11T23:08:36.714Z,0.40
2018-08-11T23:11:05.047Z,0.40
2018-08-11T23:13:34.464Z,0.50
2018-08-11T23:16:02.792Z,0.30
2018-08-11T23:18:31.160Z,0.40
2018-08-11T23:20:59.452Z,0.43
2018-08-11T23:23:27.831Z,0.93
2018-08-11T23:25:56.170Z,0.33
2018-08-11T23:28:24.487Z,0.43
2018-08-11T23:30:56.332Z,0.50
2018-08-11T23:33:25.672Z,0.63
2018-08-11T23:35:53.985Z,0.37
2018-08-11T23:38:22.301Z,0.40
2018-08-11T23:40:50.532Z,0.40
2018-08-11T23:43:18.833Z,0.37
2018-08-11T23:45:47.105Z,0.50
2018-08-11T23:48:15.402Z,0.50
2018-08-11T23:50:43.654Z,0.47
2018-08-11T23:53:11.971Z,0.43
2018-08-11T23:55:40.335Z,0.43
2018-08-11T23:58:08.629Z,0.70
